sensor_id;sensor_type;location;lat;lon;timestamp;temperature;humidity
25616;DHT22;13482;48.234;13.006;2023-06-26T00:02:04;19.50;57.60
25616;DHT22;13482;48.234;13.006;2023-06-26T00:04:31;19.50;57.60
25616;DHT22;13482;48.234;13.006;2023-06-26T00:06:59;19.40;57.60
25616;DHT22;13482;48.234;13.006;2023-06-26T00:09:26;19.40;57.80
25616;DHT22;13482;48.234;13.006;2023-06-26T00:11:54;19.40;57.80
25616;DHT22;13482;48.234;13.006;2023-06-26T00:14:21;19.30;57.90
25616;DHT22;13482;48.234;13.006;2023-06-26T00:16:48;19.30;57.80
25616;DHT22;13482;48.234;13.006;2023-06-26T00:19:19;19.20;57.70
25616;DHT22;13482;48.234;13.006;2023-06-26T00:21:46;19.20;58.00
25616;DHT22;13482;48.234;13.006;2023-06-26T00:24:15;19.20;58.40
25616;DHT22;13482;48.234;13.006;2023-06-26T00:26:48;19.10;58.40
25616;DHT22;13482;48.234;13.006;2023-06-26T00:29:16;19.10;58.50
25616;DHT22;13482;48.234;13.006;2023-06-26T00:31:44;19.00;58.20
25616;DHT22;13482;48.234;13.006;2023-06-26T00:34:12;19.00;58.20
25616;DHT22;13482;48.234;13.006;2023-06-26T00:36:39;19.00;58.10
25616;DHT22;13482;48.234;13.006;2023-06-26T00:39:10;18.90;58.00
25616;DHT22;13482;48.234;13.006;2023-06-26T00:41:38;18.90;58.10
25616;DHT22;13482;48.234;13.006;2023-06-26T00:44:06;18.80;58.40
25616;DHT22;13482;48.234;13.006;2023-06-26T00:46:34;18.80;58.80
25616;DHT22;13482;48.234;13.006;2023-06-26T00:49:03;18.70;59.20
25616;DHT22;13482;48.234;13.006;2023-06-26T00:51:31;18.70;59.40
25616;DHT22;13482;48.234;13.006;2023-06-26T00:53:59;18.60;59.40
25616;DHT22;13482;48.234;13.006;2023-06-26T00:56:27;18.60;59.50
25616;DHT22;13482;48.234;13.006;2023-06-26T00:58:56;18.50;59.50
25616;DHT22;13482;48.234;13.006;2023-06-26T01:01:24;18.50;59.60
25616;DHT22;13482;48.234;13.006;2023-06-26T01:03:53;18.50;59.60
25616;DHT22;13482;48.234;13.006;2023-06-26T01:06:23;18.40;59.70
25616;DHT22;13482;48.234;13.006;2023-06-26T01:08:51;18.30;59.90
25616;DHT22;13482;48.234;13.006;2023-06-26T01:11:19;18.30;60.00
25616;DHT22;13482;48.234;13.006;2023-06-26T01:13:47;18.20;59.90
25616;DHT22;13482;48.234;13.006;2023-06-26T01:16:15;18.20;59.90
25616;DHT22;13482;48.234;13.006;2023-06-26T01:18:46;18.10;60.00
25616;DHT22;13482;48.234;13.006;2023-06-26T01:21:16;18.20;60.80
25616;DHT22;13482;48.234;13.006;2023-06-26T01:23:49;18.10;59.40
25616;DHT22;13482;48.234;13.006;2023-06-26T01:26:32;18.10;59.60
25616;DHT22;13482;48.234;13.006;2023-06-26T01:29:06;18.10;59.50
25616;DHT22;13482;48.234;13.006;2023-06-26T01:31:35;18.00;59.70
25616;DHT22;13482;48.234;13.006;2023-06-26T01:34:03;18.00;59.90
25616;DHT22;13482;48.234;13.006;2023-06-26T01:36:31;18.00;60.00
25616;DHT22;13482;48.234;13.006;2023-06-26T01:38:59;17.90;60.20
25616;DHT22;13482;48.234;13.006;2023-06-26T01:41:26;17.90;60.30
25616;DHT22;13482;48.234;13.006;2023-06-26T01:46:54;17.80;61.00
25616;DHT22;13482;48.234;13.006;2023-06-26T01:52:42;17.70;61.40
25616;DHT22;13482;48.234;13.006;2023-06-26T01:57:53;17.70;60.90
25616;DHT22;13482;48.234;13.006;2023-06-26T02:00:24;17.60;61.10
25616;DHT22;13482;48.234;13.006;2023-06-26T02:02:52;17.60;61.00
25616;DHT22;13482;48.234;13.006;2023-06-26T02:05:20;17.50;61.10
25616;DHT22;13482;48.234;13.006;2023-06-26T02:07:48;17.50;61.00
25616;DHT22;13482;48.234;13.006;2023-06-26T02:10:15;17.50;61.00
25616;DHT22;13482;48.234;13.006;2023-06-26T02:12:42;17.40;61.30
25616;DHT22;13482;48.234;13.006;2023-06-26T02:15:10;17.40;61.30
25616;DHT22;13482;48.234;13.006;2023-06-26T02:17:38;17.40;61.10
25616;DHT22;13482;48.234;13.006;2023-06-26T02:20:06;17.40;60.90
25616;DHT22;13482;48.234;13.006;2023-06-26T02:22:36;17.40;60.90
25616;DHT22;13482;48.234;13.006;2023-06-26T02:25:04;17.30;60.90
25616;DHT22;13482;48.234;13.006;2023-06-26T02:27:32;17.30;61.20
25616;DHT22;13482;48.234;13.006;2023-06-26T02:29:59;17.30;61.50
25616;DHT22;13482;48.234;13.006;2023-06-26T02:32:27;17.20;61.70
25616;DHT22;13482;48.234;13.006;2023-06-26T02:34:54;17.20;61.80
25616;DHT22;13482;48.234;13.006;2023-06-26T02:37:22;17.20;61.90
25616;DHT22;13482;48.234;13.006;2023-06-26T02:39:49;17.20;61.90
25616;DHT22;13482;48.234;13.006;2023-06-26T02:42:16;17.20;62.00
25616;DHT22;13482;48.234;13.006;2023-06-26T02:44:44;17.10;62.00
25616;DHT22;13482;48.234;13.006;2023-06-26T02:47:11;17.10;62.20
25616;DHT22;13482;48.234;13.006;2023-06-26T02:49:39;17.10;62.40
25616;DHT22;13482;48.234;13.006;2023-06-26T02:52:06;17.00;62.50
25616;DHT22;13482;48.234;13.006;2023-06-26T02:54:33;17.00;62.50
25616;DHT22;13482;48.234;13.006;2023-06-26T02:57:01;17.00;62.60
25616;DHT22;13482;48.234;13.006;2023-06-26T02:59:28;17.00;62.60
25616;DHT22;13482;48.234;13.006;2023-06-26T03:01:56;17.00;62.80
25616;DHT22;13482;48.234;13.006;2023-06-26T03:04:23;16.90;63.00
25616;DHT22;13482;48.234;13.006;2023-06-26T03:06:51;16.90;63.10
25616;DHT22;13482;48.234;13.006;2023-06-26T03:09:18;16.80;63.10
25616;DHT22;13482;48.234;13.006;2023-06-26T03:11:45;16.80;63.20
25616;DHT22;13482;48.234;13.006;2023-06-26T03:14:13;16.80;63.30
25616;DHT22;13482;48.234;13.006;2023-06-26T03:16:40;16.80;63.30
25616;DHT22;13482;48.234;13.006;2023-06-26T03:19:08;16.70;63.40
25616;DHT22;13482;48.234;13.006;2023-06-26T03:21:35;16.70;63.40
25616;DHT22;13482;48.234;13.006;2023-06-26T03:24:03;16.70;63.60
25616;DHT22;13482;48.234;13.006;2023-06-26T03:26:30;16.70;63.70
25616;DHT22;13482;48.234;13.006;2023-06-26T03:28:58;16.70;63.70
25616;DHT22;13482;48.234;13.006;2023-06-26T03:31:25;16.60;63.80
25616;DHT22;13482;48.234;13.006;2023-06-26T03:33:53;16.60;63.90
25616;DHT22;13482;48.234;13.006;2023-06-26T03:36:20;16.60;63.90
25616;DHT22;13482;48.234;13.006;2023-06-26T03:38:47;16.60;64.20
25616;DHT22;13482;48.234;13.006;2023-06-26T03:41:15;16.60;64.20
25616;DHT22;13482;48.234;13.006;2023-06-26T03:43:42;16.60;64.10
25616;DHT22;13482;48.234;13.006;2023-06-26T03:46:10;16.60;64.10
25616;DHT22;13482;48.234;13.006;2023-06-26T03:48:37;16.60;64.10
25616;DHT22;13482;48.234;13.006;2023-06-26T03:51:06;16.60;64.20
25616;DHT22;13482;48.234;13.006;2023-06-26T03:53:34;16.60;64.40
25616;DHT22;13482;48.234;13.006;2023-06-26T03:56:01;16.60;64.40
25616;DHT22;13482;48.234;13.006;2023-06-26T03:58:29;16.60;64.50
25616;DHT22;13482;48.234;13.006;2023-06-26T04:00:56;16.70;64.50
25616;DHT22;13482;48.234;13.006;2023-06-26T04:03:24;16.70;64.40
25616;DHT22;13482;48.234;13.006;2023-06-26T04:05:52;16.80;64.60
25616;DHT22;13482;48.234;13.006;2023-06-26T04:08:19;16.80;64.90
25616;DHT22;13482;48.234;13.006;2023-06-26T04:10:47;16.90;64.90
25616;DHT22;13482;48.234;13.006;2023-06-26T04:13:15;16.90;65.10
25616;DHT22;13482;48.234;13.006;2023-06-26T04:15:42;17.00;65.10
25616;DHT22;13482;48.234;13.006;2023-06-26T04:18:10;17.10;65.10
25616;DHT22;13482;48.234;13.006;2023-06-26T04:23:34;17.30;65.70
25616;DHT22;13482;48.234;13.006;2023-06-26T04:26:04;17.40;65.30
25616;DHT22;13482;48.234;13.006;2023-06-26T04:28:33;17.40;65.40
25616;DHT22;13482;48.234;13.006;2023-06-26T04:31:02;17.60;65.60
25616;DHT22;13482;48.234;13.006;2023-06-26T04:33:32;17.70;65.60
25616;DHT22;13482;48.234;13.006;2023-06-26T04:36:00;17.80;65.50
25616;DHT22;13482;48.234;13.006;2023-06-26T04:38:32;17.90;65.60
25616;DHT22;13482;48.234;13.006;2023-06-26T04:41:01;18.00;65.60
25616;DHT22;13482;48.234;13.006;2023-06-26T04:43:29;18.20;65.60
25616;DHT22;13482;48.234;13.006;2023-06-26T04:45:56;18.30;65.60
25616;DHT22;13482;48.234;13.006;2023-06-26T04:48:24;18.50;65.60
25616;DHT22;13482;48.234;13.006;2023-06-26T04:50:55;18.60;65.60
25616;DHT22;13482;48.234;13.006;2023-06-26T04:53:23;18.70;65.60
25616;DHT22;13482;48.234;13.006;2023-06-26T04:55:51;18.90;65.50
25616;DHT22;13482;48.234;13.006;2023-06-26T04:58:20;19.10;65.40
25616;DHT22;13482;48.234;13.006;2023-06-26T05:00:48;19.20;65.40
25616;DHT22;13482;48.234;13.006;2023-06-26T05:03:17;19.40;65.20
25616;DHT22;13482;48.234;13.006;2023-06-26T05:05:45;19.50;65.40
25616;DHT22;13482;48.234;13.006;2023-06-26T05:08:24;19.70;65.30
25616;DHT22;13482;48.234;13.006;2023-06-26T05:10:53;19.90;65.80
25616;DHT22;13482;48.234;13.006;2023-06-26T05:13:28;20.00;65.10
25616;DHT22;13482;48.234;13.006;2023-06-26T05:15:55;20.20;65.10
25616;DHT22;13482;48.234;13.006;2023-06-26T05:18:22;20.40;64.80
25616;DHT22;13482;48.234;13.006;2023-06-26T05:20:50;20.50;64.70
25616;DHT22;13482;48.234;13.006;2023-06-26T05:23:18;20.60;64.80
25616;DHT22;13482;48.234;13.006;2023-06-26T05:25:46;20.80;64.80
25616;DHT22;13482;48.234;13.006;2023-06-26T05:28:15;20.90;64.70
25616;DHT22;13482;48.234;13.006;2023-06-26T05:30:42;21.00;64.50
25616;DHT22;13482;48.234;13.006;2023-06-26T05:33:14;21.10;64.40
25616;DHT22;13482;48.234;13.006;2023-06-26T05:35:45;21.20;64.30
25616;DHT22;13482;48.234;13.006;2023-06-26T05:38:13;21.30;64.10
25616;DHT22;13482;48.234;13.006;2023-06-26T05:40:41;21.50;63.70
25616;DHT22;13482;48.234;13.006;2023-06-26T05:43:09;21.60;63.20
25616;DHT22;13482;48.234;13.006;2023-06-26T05:45:36;21.70;63.10
25616;DHT22;13482;48.234;13.006;2023-06-26T05:48:04;21.80;63.10
25616;DHT22;13482;48.234;13.006;2023-06-26T05:50:33;21.90;63.20
25616;DHT22;13482;48.234;13.006;2023-06-26T05:53:02;22.10;63.10
25616;DHT22;13482;48.234;13.006;2023-06-26T05:55:32;22.20;63.10
25616;DHT22;13482;48.234;13.006;2023-06-26T05:58:02;22.40;63.00
25616;DHT22;13482;48.234;13.006;2023-06-26T06:00:30;22.50;62.90
25616;DHT22;13482;48.234;13.006;2023-06-26T06:02:58;22.70;62.80
25616;DHT22;13482;48.234;13.006;2023-06-26T06:05:25;22.90;62.90
25616;DHT22;13482;48.234;13.006;2023-06-26T06:07:53;23.10;62.50
25616;DHT22;13482;48.234;13.006;2023-06-26T06:10:20;23.30;62.10
25616;DHT22;13482;48.234;13.006;2023-06-26T06:12:47;23.50;61.80
25616;DHT22;13482;48.234;13.006;2023-06-26T06:15:15;23.60;61.60
25616;DHT22;13482;48.234;13.006;2023-06-26T06:17:43;23.70;61.50
25616;DHT22;13482;48.234;13.006;2023-06-26T06:20:10;23.90;61.50
25616;DHT22;13482;48.234;13.006;2023-06-26T06:22:38;24.00;61.30
25616;DHT22;13482;48.234;13.006;2023-06-26T06:25:06;24.20;61.30
25616;DHT22;13482;48.234;13.006;2023-06-26T06:27:33;24.30;61.30
25616;DHT22;13482;48.234;13.006;2023-06-26T06:30:01;24.50;61.30
25616;DHT22;13482;48.234;13.006;2023-06-26T06:32:28;24.70;61.10
25616;DHT22;13482;48.234;13.006;2023-06-26T06:34:56;24.90;60.90
25616;DHT22;13482;48.234;13.006;2023-06-26T06:37:24;25.10;60.50
25616;DHT22;13482;48.234;13.006;2023-06-26T06:39:51;25.30;60.50
25616;DHT22;13482;48.234;13.006;2023-06-26T06:42:19;25.40;60.50
25616;DHT22;13482;48.234;13.006;2023-06-26T06:44:46;25.60;60.40
25616;DHT22;13482;48.234;13.006;2023-06-26T06:47:13;25.80;60.00
25616;DHT22;13482;48.234;13.006;2023-06-26T06:49:41;26.00;59.60
25616;DHT22;13482;48.234;13.006;2023-06-26T06:52:08;26.10;59.30
25616;DHT22;13482;48.234;13.006;2023-06-26T06:54:52;26.30;59.30
25616;DHT22;13482;48.234;13.006;2023-06-26T06:57:27;26.50;58.80
25616;DHT22;13482;48.234;13.006;2023-06-26T06:59:54;26.70;58.70
25616;DHT22;13482;48.234;13.006;2023-06-26T07:02:22;26.80;58.60
25616;DHT22;13482;48.234;13.006;2023-06-26T07:04:49;26.90;58.40
25616;DHT22;13482;48.234;13.006;2023-06-26T07:07:19;27.00;58.10
25616;DHT22;13482;48.234;13.006;2023-06-26T07:09:46;27.20;58.00
25616;DHT22;13482;48.234;13.006;2023-06-26T07:12:14;27.30;58.00
25616;DHT22;13482;48.234;13.006;2023-06-26T07:14:41;27.50;57.60
25616;DHT22;13482;48.234;13.006;2023-06-26T07:17:08;27.60;57.40
25616;DHT22;13482;48.234;13.006;2023-06-26T07:19:36;27.70;57.20
25616;DHT22;13482;48.234;13.006;2023-06-26T07:22:03;27.80;57.10
25616;DHT22;13482;48.234;13.006;2023-06-26T07:24:33;27.90;56.90
25616;DHT22;13482;48.234;13.006;2023-06-26T07:27:00;28.00;57.00
25616;DHT22;13482;48.234;13.006;2023-06-26T07:29:28;28.20;57.00
25616;DHT22;13482;48.234;13.006;2023-06-26T07:31:55;28.30;56.60
25616;DHT22;13482;48.234;13.006;2023-06-26T07:34:23;28.50;56.40
25616;DHT22;13482;48.234;13.006;2023-06-26T07:36:50;28.60;56.40
25616;DHT22;13482;48.234;13.006;2023-06-26T07:39:18;28.70;56.30
25616;DHT22;13482;48.234;13.006;2023-06-26T07:41:49;28.90;56.10
25616;DHT22;13482;48.234;13.006;2023-06-26T07:44:17;29.10;55.50
25616;DHT22;13482;48.234;13.006;2023-06-26T07:46:44;29.20;55.60
25616;DHT22;13482;48.234;13.006;2023-06-26T07:49:12;29.30;55.60
25616;DHT22;13482;48.234;13.006;2023-06-26T07:51:39;29.50;55.30
25616;DHT22;13482;48.234;13.006;2023-06-26T07:54:07;29.60;55.20
25616;DHT22;13482;48.234;13.006;2023-06-26T07:59:23;30.00;53.90
25616;DHT22;13482;48.234;13.006;2023-06-26T08:01:53;30.10;54.90
25616;DHT22;13482;48.234;13.006;2023-06-26T08:04:25;30.30;54.40
25616;DHT22;13482;48.234;13.006;2023-06-26T08:06:56;30.40;53.70
25616;DHT22;13482;48.234;13.006;2023-06-26T08:09:29;30.50;53.70
25616;DHT22;13482;48.234;13.006;2023-06-26T08:11:57;30.70;53.20
25616;DHT22;13482;48.234;13.006;2023-06-26T08:14:25;30.70;53.40
25616;DHT22;13482;48.234;13.006;2023-06-26T08:16:53;30.90;53.20
25616;DHT22;13482;48.234;13.006;2023-06-26T08:19:21;31.00;53.30
25616;DHT22;13482;48.234;13.006;2023-06-26T08:21:49;31.20;53.10
25616;DHT22;13482;48.234;13.006;2023-06-26T08:24:16;31.30;52.70
25616;DHT22;13482;48.234;13.006;2023-06-26T08:26:46;31.40;52.60
25616;DHT22;13482;48.234;13.006;2023-06-26T08:29:14;31.50;51.90
25616;DHT22;13482;48.234;13.006;2023-06-26T08:31:42;31.60;51.80
25616;DHT22;13482;48.234;13.006;2023-06-26T08:34:10;31.60;51.70
25616;DHT22;13482;48.234;13.006;2023-06-26T08:36:38;31.70;51.80
25616;DHT22;13482;48.234;13.006;2023-06-26T08:39:06;31.80;52.10
25616;DHT22;13482;48.234;13.006;2023-06-26T08:41:35;31.90;52.20
25616;DHT22;13482;48.234;13.006;2023-06-26T08:44:03;32.10;51.60
25616;DHT22;13482;48.234;13.006;2023-06-26T08:46:32;32.30;51.50
25616;DHT22;13482;48.234;13.006;2023-06-26T08:49:04;32.50;51.70
25616;DHT22;13482;48.234;13.006;2023-06-26T08:51:45;32.70;51.00
25616;DHT22;13482;48.234;13.006;2023-06-26T08:54:22;32.80;50.40
25616;DHT22;13482;48.234;13.006;2023-06-26T08:56:56;32.90;50.40
25616;DHT22;13482;48.234;13.006;2023-06-26T08:59:25;33.00;50.30
25616;DHT22;13482;48.234;13.006;2023-06-26T09:01:53;33.10;50.20
25616;DHT22;13482;48.234;13.006;2023-06-26T09:04:21;33.30;49.90
25616;DHT22;13482;48.234;13.006;2023-06-26T09:06:49;33.40;50.00
25616;DHT22;13482;48.234;13.006;2023-06-26T09:09:16;33.50;49.30
25616;DHT22;13482;48.234;13.006;2023-06-26T09:11:44;33.60;49.10
25616;DHT22;13482;48.234;13.006;2023-06-26T09:14:12;33.70;48.70
25616;DHT22;13482;48.234;13.006;2023-06-26T09:16:42;33.80;48.50
25616;DHT22;13482;48.234;13.006;2023-06-26T09:19:13;34.00;48.10
25616;DHT22;13482;48.234;13.006;2023-06-26T09:21:41;34.10;47.70
25616;DHT22;13482;48.234;13.006;2023-06-26T09:24:10;34.20;47.40
25616;DHT22;13482;48.234;13.006;2023-06-26T09:26:40;34.20;47.00
25616;DHT22;13482;48.234;13.006;2023-06-26T09:29:09;34.30;46.50
25616;DHT22;13482;48.234;13.006;2023-06-26T09:31:40;34.30;46.20
25616;DHT22;13482;48.234;13.006;2023-06-26T09:34:09;34.40;45.90
25616;DHT22;13482;48.234;13.006;2023-06-26T09:36:37;34.40;46.60
25616;DHT22;13482;48.234;13.006;2023-06-26T09:39:07;34.50;46.50
25616;DHT22;13482;48.234;13.006;2023-06-26T09:41:41;34.60;46.70
25616;DHT22;13482;48.234;13.006;2023-06-26T09:44:14;34.70;46.40
25616;DHT22;13482;48.234;13.006;2023-06-26T09:46:45;34.80;45.70
25616;DHT22;13482;48.234;13.006;2023-06-26T09:49:13;34.80;45.60
25616;DHT22;13482;48.234;13.006;2023-06-26T09:51:42;34.90;45.80
25616;DHT22;13482;48.234;13.006;2023-06-26T09:54:10;34.90;45.80
25616;DHT22;13482;48.234;13.006;2023-06-26T09:56:38;35.00;45.80
25616;DHT22;13482;48.234;13.006;2023-06-26T09:59:06;35.00;45.50
25616;DHT22;13482;48.234;13.006;2023-06-26T10:01:40;35.10;45.60
25616;DHT22;13482;48.234;13.006;2023-06-26T10:04:09;35.20;45.00
25616;DHT22;13482;48.234;13.006;2023-06-26T10:06:47;35.30;45.20
25616;DHT22;13482;48.234;13.006;2023-06-26T10:09:20;35.50;45.20
25616;DHT22;13482;48.234;13.006;2023-06-26T10:12:02;35.60;44.60
25616;DHT22;13482;48.234;13.006;2023-06-26T10:14:37;35.80;43.90
25616;DHT22;13482;48.234;13.006;2023-06-26T10:17:09;35.90;44.50
25616;DHT22;13482;48.234;13.006;2023-06-26T10:19:38;36.00;44.50
25616;DHT22;13482;48.234;13.006;2023-06-26T10:22:07;36.10;44.60
25616;DHT22;13482;48.234;13.006;2023-06-26T10:24:35;36.20;44.30
25616;DHT22;13482;48.234;13.006;2023-06-26T10:27:17;36.30;43.90
25616;DHT22;13482;48.234;13.006;2023-06-26T10:29:49;36.40;43.30
25616;DHT22;13482;48.234;13.006;2023-06-26T10:32:20;36.50;43.30
25616;DHT22;13482;48.234;13.006;2023-06-26T10:34:49;36.50;43.30
25616;DHT22;13482;48.234;13.006;2023-06-26T10:37:18;36.50;43.00
25616;DHT22;13482;48.234;13.006;2023-06-26T10:39:50;36.50;43.10
25616;DHT22;13482;48.234;13.006;2023-06-26T10:42:35;36.60;43.00
25616;DHT22;13482;48.234;13.006;2023-06-26T10:45:19;36.80;43.00
25616;DHT22;13482;48.234;13.006;2023-06-26T10:47:49;36.90;42.60
25616;DHT22;13482;48.234;13.006;2023-06-26T10:56:05;37.30;42.50
25616;DHT22;13482;48.234;13.006;2023-06-26T10:58:40;37.40;41.20
25616;DHT22;13482;48.234;13.006;2023-06-26T11:01:19;37.60;42.70
25616;DHT22;13482;48.234;13.006;2023-06-26T11:04:09;37.70;42.10
25616;DHT22;13482;48.234;13.006;2023-06-26T11:06:44;37.80;40.80
25616;DHT22;13482;48.234;13.006;2023-06-26T11:09:18;37.80;41.70
25616;DHT22;13482;48.234;13.006;2023-06-26T11:14:24;37.80;41.20
25616;DHT22;13482;48.234;13.006;2023-06-26T11:16:56;37.80;41.60
25616;DHT22;13482;48.234;13.006;2023-06-26T11:19:27;37.90;41.60
25616;DHT22;13482;48.234;13.006;2023-06-26T11:22:02;38.00;42.00
25616;DHT22;13482;48.234;13.006;2023-06-26T11:24:31;38.10;41.30
25616;DHT22;13482;48.234;13.006;2023-06-26T11:27:00;38.20;41.80
25616;DHT22;13482;48.234;13.006;2023-06-26T11:29:30;38.30;41.90
25616;DHT22;13482;48.234;13.006;2023-06-26T11:32:00;38.40;41.40
25616;DHT22;13482;48.234;13.006;2023-06-26T11:34:31;38.60;41.30
25616;DHT22;13482;48.234;13.006;2023-06-26T11:36:59;38.70;40.90
25616;DHT22;13482;48.234;13.006;2023-06-26T11:39:29;38.70;41.00
25616;DHT22;13482;48.234;13.006;2023-06-26T11:41:56;38.90;40.60
25616;DHT22;13482;48.234;13.006;2023-06-26T11:44:24;38.90;40.30
25616;DHT22;13482;48.234;13.006;2023-06-26T11:46:57;38.90;40.40
25616;DHT22;13482;48.234;13.006;2023-06-26T11:49:25;39.00;40.30
25616;DHT22;13482;48.234;13.006;2023-06-26T11:51:55;39.00;39.90
25616;DHT22;13482;48.234;13.006;2023-06-26T11:54:24;38.90;39.80
25616;DHT22;13482;48.234;13.006;2023-06-26T11:56:57;38.90;39.70
25616;DHT22;13482;48.234;13.006;2023-06-26T11:59:37;38.80;39.30
25616;DHT22;13482;48.234;13.006;2023-06-26T12:02:07;38.70;37.10
25616;DHT22;13482;48.234;13.006;2023-06-26T12:04:42;38.60;38.20
25616;DHT22;13482;48.234;13.006;2023-06-26T12:07:12;38.30;38.60
25616;DHT22;13482;48.234;13.006;2023-06-26T12:09:43;38.10;38.90
25616;DHT22;13482;48.234;13.006;2023-06-26T12:12:16;37.90;38.50
25616;DHT22;13482;48.234;13.006;2023-06-26T12:14:44;37.70;39.10
25616;DHT22;13482;48.234;13.006;2023-06-26T12:17:14;37.60;39.30
25616;DHT22;13482;48.234;13.006;2023-06-26T12:19:46;37.60;39.70
25616;DHT22;13482;48.234;13.006;2023-06-26T12:22:18;37.60;39.30
25616;DHT22;13482;48.234;13.006;2023-06-26T12:24:47;37.60;39.00
25616;DHT22;13482;48.234;13.006;2023-06-26T12:27:17;37.50;39.20
25616;DHT22;13482;48.234;13.006;2023-06-26T12:29:51;37.40;39.70
25616;DHT22;13482;48.234;13.006;2023-06-26T12:32:26;37.50;39.60
25616;DHT22;13482;48.234;13.006;2023-06-26T12:34:57;37.50;39.30
25616;DHT22;13482;48.234;13.006;2023-06-26T12:37:27;37.50;39.80
25616;DHT22;13482;48.234;13.006;2023-06-26T12:39:56;37.60;39.90
25616;DHT22;13482;48.234;13.006;2023-06-26T12:42:27;37.60;39.70
25616;DHT22;13482;48.234;13.006;2023-06-26T12:44:55;37.60;39.80
25616;DHT22;13482;48.234;13.006;2023-06-26T12:47:27;37.60;39.50
25616;DHT22;13482;48.234;13.006;2023-06-26T12:49:58;37.60;39.50
25616;DHT22;13482;48.234;13.006;2023-06-26T12:52:25;37.60;39.60
25616;DHT22;13482;48.234;13.006;2023-06-26T12:54:54;37.60;39.60
25616;DHT22;13482;48.234;13.006;2023-06-26T12:57:24;37.50;39.40
25616;DHT22;13482;48.234;13.006;2023-06-26T12:59:54;37.50;39.80
25616;DHT22;13482;48.234;13.006;2023-06-26T13:02:21;37.50;39.90
25616;DHT22;13482;48.234;13.006;2023-06-26T13:04:49;37.50;39.90
25616;DHT22;13482;48.234;13.006;2023-06-26T13:07:19;37.60;39.60
25616;DHT22;13482;48.234;13.006;2023-06-26T13:09:47;37.70;39.60
25616;DHT22;13482;48.234;13.006;2023-06-26T13:12:16;37.70;39.40
25616;DHT22;13482;48.234;13.006;2023-06-26T13:14:45;37.80;39.50
25616;DHT22;13482;48.234;13.006;2023-06-26T13:17:15;37.80;39.20
25616;DHT22;13482;48.234;13.006;2023-06-26T13:19:43;37.80;39.00
25616;DHT22;13482;48.234;13.006;2023-06-26T13:22:10;37.70;39.00
25616;DHT22;13482;48.234;13.006;2023-06-26T13:24:38;37.70;39.20
25616;DHT22;13482;48.234;13.006;2023-06-26T13:27:06;37.50;38.90
25616;DHT22;13482;48.234;13.006;2023-06-26T13:29:34;37.40;39.20
25616;DHT22;13482;48.234;13.006;2023-06-26T13:32:01;37.30;39.40
25616;DHT22;13482;48.234;13.006;2023-06-26T13:34:32;37.30;39.50
25616;DHT22;13482;48.234;13.006;2023-06-26T13:37:02;37.30;39.90
25616;DHT22;13482;48.234;13.006;2023-06-26T13:39:30;37.40;40.00
25616;DHT22;13482;48.234;13.006;2023-06-26T13:41:57;37.60;39.90
25616;DHT22;13482;48.234;13.006;2023-06-26T13:44:26;37.70;38.80
25616;DHT22;13482;48.234;13.006;2023-06-26T13:47:13;37.70;38.70
25616;DHT22;13482;48.234;13.006;2023-06-26T13:49:42;37.70;39.00
25616;DHT22;13482;48.234;13.006;2023-06-26T13:52:11;37.70;39.30
25616;DHT22;13482;48.234;13.006;2023-06-26T13:54:39;37.70;39.30
25616;DHT22;13482;48.234;13.006;2023-06-26T13:57:07;37.70;39.30
25616;DHT22;13482;48.234;13.006;2023-06-26T13:59:38;37.80;39.20
25616;DHT22;13482;48.234;13.006;2023-06-26T14:02:11;37.80;39.30
25616;DHT22;13482;48.234;13.006;2023-06-26T14:04:40;37.90;39.30
25616;DHT22;13482;48.234;13.006;2023-06-26T14:07:09;37.90;39.20
25616;DHT22;13482;48.234;13.006;2023-06-26T14:09:39;37.90;38.90
25616;DHT22;13482;48.234;13.006;2023-06-26T14:12:07;37.80;39.00
25616;DHT22;13482;48.234;13.006;2023-06-26T14:14:38;37.80;39.10
25616;DHT22;13482;48.234;13.006;2023-06-26T14:17:09;37.80;39.00
25616;DHT22;13482;48.234;13.006;2023-06-26T14:19:42;37.80;39.00
25616;DHT22;13482;48.234;13.006;2023-06-26T14:22:09;37.80;39.10
25616;DHT22;13482;48.234;13.006;2023-06-26T14:24:37;37.80;39.30
25616;DHT22;13482;48.234;13.006;2023-06-26T14:27:05;37.70;39.30
25616;DHT22;13482;48.234;13.006;2023-06-26T14:29:32;37.80;39.50
25616;DHT22;13482;48.234;13.006;2023-06-26T14:32:00;37.80;39.50
25616;DHT22;13482;48.234;13.006;2023-06-26T14:34:30;37.90;39.50
25616;DHT22;13482;48.234;13.006;2023-06-26T14:37:00;38.00;39.60
25616;DHT22;13482;48.234;13.006;2023-06-26T14:39:30;38.00;39.30
25616;DHT22;13482;48.234;13.006;2023-06-26T14:42:01;38.10;39.20
25616;DHT22;13482;48.234;13.006;2023-06-26T14:44:34;38.10;39.40
25616;DHT22;13482;48.234;13.006;2023-06-26T14:47:05;38.20;39.10
25616;DHT22;13482;48.234;13.006;2023-06-26T14:49:35;38.20;39.20
25616;DHT22;13482;48.234;13.006;2023-06-26T14:52:05;38.30;39.10
25616;DHT22;13482;48.234;13.006;2023-06-26T14:54:35;38.40;39.10
25616;DHT22;13482;48.234;13.006;2023-06-26T14:57:04;38.40;39.00
25616;DHT22;13482;48.234;13.006;2023-06-26T14:59:34;38.40;38.90
25616;DHT22;13482;48.234;13.006;2023-06-26T15:02:07;38.30;39.00
25616;DHT22;13482;48.234;13.006;2023-06-26T15:04:42;38.10;39.20
25616;DHT22;13482;48.234;13.006;2023-06-26T15:07:12;38.00;39.30
25616;DHT22;13482;48.234;13.006;2023-06-26T15:09:40;38.00;39.40
25616;DHT22;13482;48.234;13.006;2023-06-26T15:12:13;37.90;39.30
25616;DHT22;13482;48.234;13.006;2023-06-26T15:14:46;37.90;39.40
25616;DHT22;13482;48.234;13.006;2023-06-26T15:17:22;37.90;39.20
25616;DHT22;13482;48.234;13.006;2023-06-26T15:19:51;37.80;39.40
25616;DHT22;13482;48.234;13.006;2023-06-26T15:22:23;37.70;39.60
25616;DHT22;13482;48.234;13.006;2023-06-26T15:24:53;37.70;40.00
25616;DHT22;13482;48.234;13.006;2023-06-26T15:27:21;37.70;40.10
25616;DHT22;13482;48.234;13.006;2023-06-26T15:29:51;37.80;40.10
25616;DHT22;13482;48.234;13.006;2023-06-26T15:32:23;38.00;39.90
25616;DHT22;13482;48.234;13.006;2023-06-26T15:34:51;38.00;39.60
25616;DHT22;13482;48.234;13.006;2023-06-26T15:37:24;38.00;39.60
25616;DHT22;13482;48.234;13.006;2023-06-26T15:39:55;38.00;39.90
25616;DHT22;13482;48.234;13.006;2023-06-26T15:42:28;38.10;39.70
25616;DHT22;13482;48.234;13.006;2023-06-26T15:44:58;38.20;39.90
25616;DHT22;13482;48.234;13.006;2023-06-26T15:47:28;38.30;40.00
25616;DHT22;13482;48.234;13.006;2023-06-26T15:49:55;38.50;39.50
25616;DHT22;13482;48.234;13.006;2023-06-26T15:52:28;38.60;39.30